Winthrop, IA (50682)

2:20 AM CDT on August 30, 2015 (GMT -0500)
Terrace Drive SE | | Change Station
CLOSE
Current Station
Personal Weather Station
Location: Independence, IA
Elevation: 940 ft
Nearby Weather Stations
Active Advisory: Dense Fog Advisory Active Notice: Local Storm Report

Elev 940 ft 42.47 °N, 91.88 °W | Updated 17 seconds ago

Fog
Fog
57.4 °F
Feels Like 57.4 °F
N
0.0
Wind Variable Wind from ENE
Gusts 0.0 mph

Today
High -- | Low -- °F
--% Chance of Precip.
Yesterday
High -- | Low -- °F
Precip. -- in
6:29 AM 7:44 PM
Full, 100% visible
Pressure 30.05 in
Visibility 2.5 miles
Clouds Clear
Dew Point 56 °F
Humidity 96%
Rainfall 0.00 in
Snow Depth Not available.
UV 0 out of 12
Pollen 8.00 out of 12
Air Quality Not available.
Flu Activity Not available.
METAR KOLZ 300655Z AUTO 13003KT 2 1/2SM BR CLR 14/14 A3005 RMK AO2 VIS 1V5
Pressure 30.05 in
Visibility 2.5 miles
Clouds Clear
Dew Point 56 °F
Humidity 96%
Rainfall 0.00 in
Snow Depth Not available.
UV 0 out of 12
Pollen 8.00 out of 12
Air Quality Not available.
Flu Activity Not available.
METAR KOLZ 300655Z AUTO 13003KT 2 1/2SM BR CLR 14/14 A3005 RMK AO2 VIS 1V5

10-Day Weather Forecast

×

Almanac

Astronomy

Aug. 30, 2015 Rise Set
Actual Time
Civil Twilight
Nautical Twilight
Astronomical Twilight
Moon
Length of Visible Light
Length of Day
Tomorrow will be .
, % of the Moon is Illuminated

Today's Extremes

State Highs State Lows

Community

WunderPhotos

Upload Photos

1,850,904 photos uploaded!

WunderBlogs® & News

Nearby

Air Quality

  Air Quality AQ Index Pollutant
Not available.

Snow Depth

Station Depth Elevation

Earthquake Activity

City Distance Mag. Time & Date
Minimum magnitude displayed is 2.5.

Coastal Water Temperatures

Place Temperature

Stations

Nearby Weather Stations

Station Location Temp. Windchill Dew Point Humidity Wind Precip. Elev Updated Type
                   
Dense Fog Advisory
Statement as of 1:35 AM CDT on August 30, 2015

... Dense fog advisory remains in effect until 11 am CDT this
morning...

* timing... now through 11 am CDT Sunday

* visibilities... one quarter mile or less at times. Near zero
visibility could occur in some areas.

* Impacts... driving could become difficult. Be sure to slow
down... use your headlights... and leave plenty of space ahead
of of you.

Precautionary/preparedness actions...

A dense fog advisory means visibilities will frequently be
reduced to less than one quarter mile. If driving... slow down...
use your headlights... and leave plenty of distance ahead of you.